.
WxDataArchive / Data Records for 2006-01-06
2006-01-05 January 2006 2006-01-07

Data Records for Friday, 06 January 2006

Time	Temp	Chill	HIndex	Humid	Dewpt	 Wind 	HiWind	WindDir	Rain 	Barom 
-----	----	-----	------	-----	-----	------	------	-------	-----	----- 
00:00	30.7	30.7	30.7	69	21.8	1	5	22	0.00	29.985 
00:05	30.7	30.7	30.7	68	21.4	1	3	22	0.00	29.985 
00:10	30.6	30.6	30.6	69	21.7	1	2	292	0.00	29.985 
00:15	30.6	30.6	30.6	69	21.7	1	3	22	0.00	29.983 
00:20	30.6	30.6	30.6	69	21.7	0	2	338	0.00	29.983 
00:25	30.7	30.7	30.7	69	21.8	1	5	338	0.00	29.983 
00:30	30.7	30.7	30.7	69	21.8	2	6	22	0.00	29.986 
00:35	30.7	30.7	30.7	69	21.8	1	3	0	0.00	29.986 
00:40	30.7	30.7	30.7	69	21.8	1	3	0	0.00	29.986 
00:45	30.7	30.7	30.7	69	21.8	1	4	22	0.00	29.984 
00:50	30.7	30.7	30.7	69	21.8	1	4	292	0.00	29.984 
00:55	30.7	30.7	30.7	70	22.1	1	3	22	0.00	29.984 
01:00	30.7	30.7	30.7	71	22.4	1	3	315	0.00	29.987 
01:05	30.6	30.6	30.6	71	22.3	1	2	0	0.00	29.987 
01:10	30.6	30.6	30.6	71	22.3	0	3	45	0.00	29.987 
01:15	30.6	30.6	30.6	70	22.0	1	6	22	0.00	29.990 
01:20	30.4	30.4	30.4	70	21.8	2	7	45	0.00	29.990 
01:25	30.4	30.4	30.4	70	21.8	1	4	338	0.00	29.990 
01:30	30.3	30.3	30.3	70	21.7	1	3	22	0.00	29.993 
01:35	30.3	30.3	30.3	69	21.4	1	4	0	0.00	29.993 
01:40	30.3	30.3	30.3	70	21.7	1	4	68	0.00	29.993 
01:45	30.1	30.1	30.1	69	21.2	1	3	338	0.00	29.993 
01:50	30.1	30.1	30.1	70	21.5	1	3	0	0.00	29.993 
01:55	30.1	30.1	30.1	68	20.8	1	4	45	0.00	29.993 
02:00	30.1	30.1	30.1	68	20.8	1	4	315	0.00	29.994 
02:05	30.0	30.0	30.0	67	20.4	1	3	22	0.00	29.994 
02:10	30.0	30.0	30.0	68	20.7	1	3	0	0.00	29.994 
02:15	30.0	30.0	30.0	68	20.7	1	7	22	0.00	29.998 
02:20	30.0	30.0	30.0	68	20.7	1	4	0	0.00	29.998 
02:25	30.0	30.0	30.0	68	20.7	1	5	112	0.00	29.998 
02:30	30.0	30.0	30.0	69	21.1	2	10	22	0.00	30.006 
02:35	30.0	30.0	30.0	69	21.1	1	4	0	0.00	30.006 
02:40	30.0	30.0	30.0	69	21.1	1	4	22	0.00	30.006 
02:45	30.0	30.0	30.0	69	21.1	1	4	0	0.00	30.010 
02:50	29.8	29.8	29.8	69	20.9	1	4	338	0.00	30.010 
02:55	29.7	29.7	29.7	67	20.1	2	9	22	0.00	30.010 
03:00	29.7	29.7	29.7	69	20.8	2	5	45	0.00	30.015 
03:05	29.5	29.5	29.5	68	20.3	2	7	22	0.00	30.015 
03:10	29.4	29.4	29.4	69	20.5	0	3	22	0.00	30.015 
03:15	29.4	29.4	29.4	69	20.5	0	2	22	0.00	30.014 
03:20	29.3	29.3	29.3	69	20.4	1	3	0	0.00	30.014 
03:25	29.3	29.3	29.3	69	20.4	1	5	338	0.00	30.014 
03:30	29.3	29.3	29.3	69	20.4	1	6	292	0.00	30.017 
03:35	29.3	29.3	29.3	69	20.4	2	5	22	0.00	30.017 
03:40	29.3	29.3	29.3	69	20.4	2	7	0	0.00	30.017 
03:45	29.1	29.1	29.1	70	20.6	0	2	338	0.00	30.021 
03:50	29.1	29.1	29.1	70	20.6	1	2	0	0.00	30.021 
03:55	29.1	29.1	29.1	69	20.2	2	5	338	0.00	30.021 
04:00	29.1	29.1	29.1	69	20.2	2	5	22	0.00	30.025 
04:05	29.1	29.1	29.1	67	19.5	2	7	338	0.00	30.025 
04:10	29.0	29.0	29.0	64	18.4	3	6	338	0.00	30.025 
04:15	28.8	28.8	28.8	60	16.7	3	7	338	0.00	30.027 
04:20	28.7	28.7	28.7	60	16.6	2	7	338	0.00	30.027 
04:25	28.5	28.5	28.5	60	16.4	2	6	0	0.00	30.027 
04:30	28.5	28.5	28.5	62	17.2	2	7	292	0.00	30.028 
04:35	28.4	28.4	28.4	61	16.7	1	6	270	0.00	30.028 
04:40	28.4	28.4	28.4	63	17.4	2	5	338	0.00	30.028 
04:45	28.4	28.4	28.4	62	17.1	2	4	22	0.00	30.030 
04:50	28.2	28.2	28.2	61	16.5	3	8	338	0.00	30.030 
04:55	28.2	28.2	28.2	62	16.9	1	7	315	0.00	30.030 
05:00	28.2	28.2	28.2	62	16.9	2	5	0	0.00	30.028 
05:05	28.1	28.1	28.1	62	16.8	1	2	315	0.00	30.028 
05:10	28.1	28.1	28.1	62	16.8	2	7	0	0.00	30.028 
05:15	27.9	27.9	27.9	60	15.8	2	7	0	0.00	30.030 
05:20	27.9	27.9	27.9	59	15.5	2	9	338	0.00	30.030 
05:25	27.8	27.8	27.8	59	15.4	2	7	338	0.00	30.030 
05:30	27.8	27.8	27.8	60	15.7	2	7	22	0.00	30.031 
05:35	27.8	27.8	27.8	60	15.7	2	5	22	0.00	30.031 
05:40	27.8	27.8	27.8	61	16.1	1	2	338	0.00	30.031 
05:45	27.6	27.6	27.6	62	16.3	1	3	338	0.00	30.032 
05:50	27.6	27.6	27.6	62	16.3	1	3	0	0.00	30.032 
05:55	27.6	27.6	27.6	62	16.3	1	5	0	0.00	30.032 
06:00	27.6	27.6	27.6	59	15.2	3	7	315	0.00	30.045 
06:05	27.5	27.5	27.5	60	15.5	2	9	315	0.00	30.045 
06:10	27.5	27.5	27.5	60	15.5	1	3	338	0.00	30.045 
06:15	27.3	27.3	27.3	59	14.9	1	4	338	0.00	30.050 
06:20	27.3	27.3	27.3	59	14.9	2	5	292	0.00	30.050 
06:25	27.2	27.2	27.2	60	15.2	1	4	315	0.00	30.050 
06:30	27.2	27.2	27.2	60	15.2	1	4	338	0.00	30.059 
06:35	27.0	27.0	27.0	61	15.4	2	6	338	0.00	30.059 
06:40	27.0	27.0	27.0	62	15.7	1	5	0	0.00	30.059 
06:45	26.9	26.9	26.9	62	15.6	1	4	315	0.00	30.061 
06:50	26.9	26.9	26.9	62	15.6	1	3	315	0.00	30.061 
06:55	26.9	26.9	26.9	62	15.6	2	7	292	0.00	30.061 
07:00	26.9	26.9	26.9	62	15.6	2	7	0	0.00	30.062 
07:05	26.7	26.7	26.7	63	15.8	2	5	292	0.00	30.062 
07:10	26.7	26.7	26.7	64	16.2	1	4	292	0.00	30.062 
07:15	26.7	26.7	26.7	63	15.8	1	4	338	0.00	30.063 
07:20	26.7	26.7	26.7	63	15.8	2	6	338	0.00	30.063 
07:25	26.7	26.7	26.7	63	15.8	2	6	338	0.00	30.063 
07:30	26.7	26.7	26.7	64	16.2	1	4	315	0.00	30.066 
07:35	26.6	26.6	26.6	63	15.7	1	5	315	0.00	30.066 
07:40	26.6	26.6	26.6	62	15.4	1	4	0	0.00	30.066 
07:45	26.4	26.4	26.4	62	15.2	1	6	315	0.00	30.066 
07:50	26.4	26.4	26.4	61	14.8	2	6	338	0.00	30.066 
07:55	26.3	26.3	26.3	61	14.7	1	4	315	0.00	30.066 
08:00	26.3	26.3	26.3	61	14.7	1	3	315	0.00	30.066 
08:05	26.3	26.3	26.3	62	15.1	1	4	338	0.00	30.066 
08:10	26.3	26.3	26.3	62	15.1	1	3	338	0.00	30.066 
08:15	26.1	26.1	26.1	61	14.5	1	4	0	0.00	30.067 
08:20	26.1	26.1	26.1	62	14.9	1	2	0	0.00	30.067 
08:25	26.1	26.1	26.1	63	15.3	1	4	315	0.00	30.067 
08:30	26.1	26.1	26.1	62	14.9	1	4	315	0.00	30.070 
08:35	26.1	26.1	26.1	62	14.9	1	4	270	0.00	30.070 
08:40	26.3	26.3	26.3	62	15.1	1	3	338	0.00	30.070 
08:45	26.3	26.3	26.3	63	15.4	1	4	270	0.00	30.080 
08:50	26.3	26.3	26.3	64	15.8	1	4	338	0.00	30.080 
08:55	26.4	26.4	26.4	64	15.9	1	4	315	0.00	30.080 
09:00	26.4	26.4	26.4	63	15.5	1	4	338	0.00	30.084 
09:05	26.4	26.4	26.4	64	15.9	2	4	22	0.00	30.084 
09:10	26.4	26.4	26.4	63	15.5	1	4	0	0.00	30.084 
09:15	26.4	26.4	26.4	63	15.5	1	4	338	0.00	30.091 
09:20	26.4	26.4	26.4	61	14.8	2	4	0	0.00	30.091 
09:25	26.1	26.1	26.1	60	14.1	2	4	315	0.00	30.091 
09:30	25.8	25.8	25.8	60	13.9	2	4	0	0.00	30.099 
09:35	25.8	25.8	25.8	60	13.9	1	4	22	0.00	30.099 
09:40	25.8	25.8	25.8	61	14.2	1	5	315	0.00	30.099 
09:45	26.0	26.0	26.0	61	14.4	2	7	338	0.00	30.101 
09:50	26.3	26.3	26.3	62	15.1	2	5	0	0.00	30.101 
09:55	26.4	26.4	26.4	61	14.8	1	5	315	0.00	30.101 
10:00	26.6	26.6	26.6	61	15.0	2	6	338	0.00	30.113 
10:05	26.7	26.7	26.7	60	14.7	2	11	338	0.00	30.113 
10:10	27.0	27.0	27.0	61	15.4	1	4	22	0.00	30.113 
10:15	27.5	27.5	27.5	59	15.1	1	4	22	0.00	30.117 
10:20	27.3	27.3	27.3	60	15.3	1	4	338	0.00	30.117 
10:25	27.2	27.2	27.2	59	14.8	1	5	22	0.00	30.117 
10:30	27.0	27.0	27.0	61	15.4	2	9	0	0.00	30.119 
10:35	27.0	27.0	27.0	61	15.4	1	4	0	0.00	30.119 
10:40	27.0	27.0	27.0	61	15.4	1	3	338	0.00	30.119 
10:45	27.0	27.0	27.0	61	15.4	2	5	270	0.00	30.115 
10:50	27.2	27.2	27.2	60	15.2	1	3	22	0.00	30.115 
10:55	27.2	27.2	27.2	59	14.8	1	3	0	0.00	30.115 
11:00	27.2	27.2	27.2	59	14.8	2	10	315	0.00	30.113 
11:05	27.3	27.3	27.3	60	15.3	1	6	0	0.00	30.113 
11:10	27.6	27.6	27.6	59	15.2	1	4	0	0.00	30.113 
11:15	27.8	27.8	27.8	59	15.4	2	9	45	0.00	30.113 
11:20	27.6	27.6	27.6	61	15.9	1	3	0	0.00	30.113 
11:25	27.8	27.8	27.8	59	15.4	2	7	0	0.00	30.113 
11:30	27.8	27.8	27.8	60	15.7	2	6	270	0.00	30.104 
11:35	27.9	27.9	27.9	60	15.8	1	4	292	0.00	30.104 
11:40	27.9	27.9	27.9	60	15.8	1	4	315	0.00	30.104 
11:45	27.8	27.8	27.8	60	15.7	1	5	338	0.00	30.097 
11:50	27.8	27.8	27.8	61	16.1	2	5	338	0.00	30.097 
11:55	27.8	27.8	27.8	61	16.1	1	4	315	0.00	30.097 
12:00	27.6	27.6	27.6	61	15.9	2	4	338	0.00	30.083 
12:05	27.8	27.8	27.8	62	16.5	1	3	338	0.00	30.083 
12:10	27.8	27.8	27.8	62	16.5	2	6	270	0.00	30.083 
12:15	27.9	27.9	27.9	62	16.6	1	6	0	0.00	30.081 
12:20	27.9	27.9	27.9	62	16.6	1	3	315	0.00	30.081 
12:25	28.1	28.1	28.1	62	16.8	1	3	22	0.00	30.081 
12:30	28.2	28.2	28.2	60	16.1	2	7	338	0.00	30.069 
12:35	28.1	28.1	28.1	60	16.0	2	6	270	0.00	30.069 
12:40	28.2	28.2	28.2	62	16.9	1	4	315	0.00	30.069 
12:45	28.2	28.2	28.2	60	16.1	2	5	292	0.00	30.064 
12:50	28.2	28.2	28.2	62	16.9	1	3	338	0.00	30.064 
12:55	28.4	28.4	28.4	62	17.1	1	4	270	0.00	30.064 
13:00	28.4	28.4	28.4	62	17.1	1	4	292	0.00	30.050 
13:05	28.4	28.4	28.4	62	17.1	1	4	292	0.00	30.050 
13:10	28.4	28.4	28.4	62	17.1	1	2	0	0.00	30.050 
13:15	28.4	28.4	28.4	59	15.9	1	3	0	0.00	30.047 
13:20	28.5	28.5	28.5	61	16.8	1	4	315	0.00	30.047 
13:25	28.8	28.8	28.8	62	17.4	1	2	315	0.00	30.047 
13:30	29.3	29.3	29.3	60	17.2	1	2	338	0.00	30.041 
13:35	29.1	29.1	29.1	60	17.0	2	4	292	0.00	30.041 
13:40	29.0	29.0	29.0	60	16.9	2	5	270	0.00	30.041 
13:45	29.0	29.0	29.0	60	16.9	2	4	338	0.00	30.037 
13:50	29.0	29.0	29.0	60	16.9	2	6	270	0.00	30.037 
13:55	28.7	28.7	28.7	62	17.4	2	5	315	0.00	30.037 
14:00	28.7	28.7	28.7	63	17.7	1	3	315	0.00	30.036 
14:05	28.7	28.7	28.7	62	17.4	1	4	315	0.00	30.036 
14:10	28.7	28.7	28.7	63	17.7	1	4	292	0.00	30.036 
14:15	28.7	28.7	28.7	63	17.7	1	3	338	0.00	30.034 
14:20	28.8	28.8	28.8	64	18.2	1	3	315	0.00	30.034 
14:25	28.8	28.8	28.8	64	18.2	1	4	338	0.00	30.034 
14:30	28.8	28.8	28.8	63	17.8	2	4	292	0.00	30.033 
14:35	28.8	28.8	28.8	64	18.2	2	4	270	0.00	30.033 
14:40	28.8	28.8	28.8	64	18.2	1	4	248	0.00	30.033 
14:45	29.0	29.0	29.0	64	18.4	1	3	270	0.00	30.034 
14:50	29.1	29.1	29.1	64	18.5	1	4	270	0.00	30.034 
14:55	29.1	29.1	29.1	62	17.7	2	5	270	0.00	30.034 
15:00	29.1	29.1	29.1	63	18.1	2	5	270	0.00	30.035 
15:05	29.3	29.3	29.3	62	17.9	2	4	248	0.00	30.035 
15:10	29.1	29.1	29.1	62	17.7	1	4	292	0.00	30.035 
15:15	29.3	29.3	29.3	62	17.9	2	4	270	0.00	30.034 
15:20	29.4	29.4	29.4	62	18.0	1	5	292	0.00	30.034 
15:25	29.3	29.3	29.3	61	17.5	1	5	338	0.00	30.034 
15:30	29.4	29.4	29.4	62	18.0	1	4	315	0.00	30.035 
15:35	29.4	29.4	29.4	62	18.0	1	3	315	0.00	30.035 
15:40	29.4	29.4	29.4	63	18.4	1	4	292	0.00	30.035 
15:45	29.3	29.3	29.3	63	18.3	1	3	270	0.00	30.035 
15:50	29.3	29.3	29.3	63	18.3	1	5	292	0.00	30.035 
15:55	29.3	29.3	29.3	65	19.0	1	4	338	0.00	30.035 
16:00	29.3	29.3	29.3	64	18.7	1	4	338	0.00	30.044 
16:05	29.3	29.3	29.3	64	18.7	2	7	270	0.00	30.044 
16:10	29.1	29.1	29.1	65	18.8	1	5	270	0.00	30.044 
16:15	29.1	29.1	29.1	64	18.5	1	3	315	0.00	30.050 
16:20	29.1	29.1	29.1	64	18.5	2	7	270	0.00	30.050 
16:25	29.1	29.1	29.1	64	18.5	1	5	315	0.00	30.050 
16:30	29.1	29.1	29.1	65	18.8	1	3	292	0.00	30.045 
16:35	29.1	29.1	29.1	65	18.8	1	4	248	0.00	30.045 
16:40	29.1	29.1	29.1	65	18.8	0	2	292	0.00	30.045 
16:45	29.1	29.1	29.1	66	19.2	1	3	270	0.00	30.039 
16:50	29.1	29.1	29.1	65	18.8	1	3	270	0.00	30.039 
16:55	29.1	29.1	29.1	65	18.8	1	4	270	0.00	30.039 
17:00	29.1	29.1	29.1	65	18.8	1	3	270	0.00	30.037 
17:05	29.1	29.1	29.1	66	19.2	1	2	338	0.00	30.037 
17:10	29.1	29.1	29.1	66	19.2	0	1	338	0.00	30.037 
17:15	29.1	29.1	29.1	66	19.2	1	3	248	0.00	30.032 
17:20	29.1	29.1	29.1	66	19.2	1	3	248	0.00	30.032 
17:25	29.1	29.1	29.1	67	19.5	1	2	292	0.00	30.032 
17:30	29.1	29.1	29.1	67	19.5	1	3	248	0.00	30.030 
17:35	29.1	29.1	29.1	67	19.5	1	4	248	0.00	30.030 
17:40	29.1	29.1	29.1	68	19.9	1	2	248	0.00	30.030 
17:45	29.1	29.1	29.1	69	20.2	1	3	248	0.00	30.024 
17:50	29.1	29.1	29.1	69	20.2	1	3	248	0.00	30.024 
17:55	29.1	29.1	29.1	69	20.2	1	3	248	0.00	30.024 
18:00	29.1	29.1	29.1	65	18.8	2	4	270	0.00	30.021 
18:05	29.1	29.1	29.1	63	18.1	2	4	270	0.00	30.021 
18:10	29.0	29.0	29.0	63	18.0	1	4	248	0.00	30.021 
18:15	29.0	29.0	29.0	63	18.0	1	4	270	0.00	30.020 
18:20	29.0	29.0	29.0	63	18.0	1	4	248	0.00	30.020 
18:25	29.0	29.0	29.0	63	18.0	1	4	248	0.00	30.020 
18:30	29.0	29.0	29.0	63	18.0	1	3	248	0.00	30.019 
18:35	29.0	29.0	29.0	63	18.0	1	3	248	0.00	30.019 
18:40	29.0	29.0	29.0	64	18.4	1	2	270	0.00	30.019 
18:45	29.0	29.0	29.0	64	18.4	1	3	248	0.00	30.017 
18:50	29.0	29.0	29.0	64	18.4	1	2	248	0.00	30.017 
18:55	29.0	29.0	29.0	65	18.7	1	4	270	0.00	30.017 
19:00	29.0	29.0	29.0	65	18.7	1	4	248	0.00	30.006 
19:05	29.0	29.0	29.0	65	18.7	1	4	248	0.00	30.006 
19:10	29.0	29.0	29.0	65	18.7	1	3	248	0.00	30.006 
19:15	29.0	29.0	29.0	65	18.7	1	6	248	0.00	30.005 
19:20	29.0	29.0	29.0	65	18.7	2	4	248	0.00	30.005 
19:25	29.0	29.0	29.0	65	18.7	2	5	248	0.00	30.005 
19:30	29.0	29.0	29.0	65	18.7	1	4	248	0.00	29.999 
19:35	29.0	29.0	29.0	65	18.7	2	4	248	0.00	29.999 
19:40	29.1	29.1	29.1	67	19.5	2	5	248	0.00	29.999 
19:45	29.1	29.1	29.1	69	20.2	2	3	248	0.00	29.991 
19:50	29.0	29.0	29.0	70	20.5	2	6	248	0.00	29.991 
19:55	29.0	29.0	29.0	70	20.5	3	9	270	0.00	29.991 
20:00	28.8	28.8	28.8	70	20.3	3	10	270	0.00	29.990 
20:05	28.7	28.7	28.7	69	19.8	2	6	248	0.00	29.990 
20:10	28.7	28.7	28.7	69	19.8	2	7	248	0.00	29.990 
20:15	28.7	28.7	28.7	67	19.2	3	9	248	0.00	29.987 
20:20	28.5	28.5	28.5	67	19.0	3	7	248	0.00	29.987 
20:25	28.5	28.5	28.5	67	19.0	2	4	248	0.00	29.987 
20:30	28.5	28.5	28.5	66	18.6	1	3	248	0.00	29.977 
20:35	28.4	28.4	28.4	67	18.9	1	5	248	0.00	29.977 
20:40	28.4	28.4	28.4	66	18.5	2	6	248	0.00	29.977 
20:45	28.2	28.2	28.2	67	18.7	1	5	248	0.00	29.964 
20:50	28.2	28.2	28.2	67	18.7	2	3	248	0.00	29.964 
20:55	28.1	28.1	28.1	67	18.6	2	6	248	0.00	29.964 
21:00	27.9	27.9	27.9	68	18.7	1	4	248	0.00	29.962 
21:05	27.9	27.9	27.9	68	18.7	2	4	248	0.00	29.962 
21:10	27.8	27.8	27.8	68	18.6	2	4	248	0.00	29.962 
21:15	27.8	27.8	27.8	69	19.0	1	4	248	0.00	29.965 
21:20	27.8	27.8	27.8	69	19.0	2	6	248	0.00	29.965 
21:25	27.8	27.8	27.8	69	19.0	2	5	248	0.00	29.965 
21:30	27.9	27.9	27.9	69	19.1	2	4	248	0.00	29.958 
21:35	28.1	28.1	28.1	69	19.3	2	7	248	0.00	29.958 
21:40	28.2	28.2	28.2	69	19.4	2	5	248	0.00	29.958 
21:45	28.2	28.2	28.2	69	19.4	2	5	248	0.00	29.950 
21:50	28.4	28.4	28.4	69	19.5	3	9	248	0.00	29.950 
21:55	28.5	28.5	28.5	69	19.6	3	10	248	0.00	29.950 
22:00	28.7	28.7	28.7	69	19.8	3	9	248	0.00	29.942 
22:05	28.7	28.7	28.7	70	20.2	2	7	248	0.00	29.942 
22:10	28.8	24.4	28.8	69	19.9	4	13	248	0.00	29.942 
22:15	28.8	24.4	28.8	69	19.9	4	10	270	0.00	29.942 
22:20	29.0	29.0	29.0	69	20.1	3	12	248	0.00	29.942 
22:25	29.0	29.0	29.0	69	20.1	3	9	248	0.00	29.942 
22:30	29.0	29.0	29.0	70	20.5	3	7	248	0.00	29.934 
22:35	29.0	24.6	29.0	70	20.5	4	9	248	0.00	29.934 
22:40	29.0	29.0	29.0	70	20.5	3	11	248	0.00	29.934 
22:45	29.0	24.6	29.0	71	20.8	4	10	248	0.00	29.928 
22:50	29.0	29.0	29.0	71	20.8	3	10	248	0.00	29.928 
22:55	29.0	23.6	29.0	70	20.5	5	11	270	0.00	29.928 
23:00	29.0	24.6	29.0	70	20.5	4	12	270	0.00	29.926 
23:05	29.0	23.6	29.0	71	20.8	5	12	270	0.00	29.926 
23:10	29.0	24.6	29.0	71	20.8	4	9	248	0.00	29.926 
23:15	29.0	24.6	29.0	71	20.8	4	11	248	0.00	29.925 
23:20	29.0	24.6	29.0	71	20.8	4	11	248	0.00	29.925 
23:25	29.0	24.6	29.0	72	21.1	4	10	248	0.00	29.925 
23:30	29.0	29.0	29.0	71	20.8	3	11	270	0.00	29.916 
23:35	29.0	24.6	29.0	72	21.1	4	9	248	0.00	29.916 
23:40	29.0	29.0	29.0	71	20.8	3	7	248	0.00	29.916 
23:45	29.0	23.6	29.0	71	20.8	5	13	248	0.00	29.907 
23:50	29.0	29.0	29.0	72	21.1	3	9	248	0.00	29.907 
23:55	29.0	24.6	29.0	72	21.1	4	6	248	0.00	29.907 

CoCoRaHS
IN-AL-39
A2 Web Hosting
Creative Commons License
GoDaddy
Look for:

loaded 2017-12-12 01:50:26 • last modified 2010-11-18 10:43:29
Privacy PolicyDisclaimer
• wx.awcolley.com is powered by PmWiki v.2002016 •
• all content (unless otherwise noted) © 2017 A W Colley